Hlavní strana
METAR-TAF:

METAR-TAF

Letiště :

Letiště Ženeva

Ženeva, Švýcarsko

zeměpisná šířka: 46-15N, zeměpisná délka: 006-08E, výška: 420 m

Aktuální stav počasí

Zpráva byla vytvořena před 56 minutami, v 17:50 UTC
Východní vítr 2 kt
Teplota 17°C
Vlhkost vzduchu 39%
Tlak 1024 hPa
Viditelnost 10 km a více
Žádná oblačnost pod 1500 m, nevyskytují se cumulonimby.

METAR: LSGG 061750Z 10002KT CAVOK 17/03 Q1024 NOSIG

Čas: 20:46 (18:46 UTC)

Předpověď počasí

Zpráva byla vytvořena před 1 hodinou a 21 minutami, v 17:25 UTC
Předpověď platná od 06 v 18 UTC do 07 v 24 UTC
vítr z různých směrů 3 kt
Viditelnost 10 km a více
Žádná oblačnost pod 1500 m, nevyskytují se cumulonimby.

TAF: LSGG 061725Z 0618/0724 VRB03KT CAVOK TX21/0715Z TN04/0705Z

Stav a předpovědi počasí z více než 4 000 letišť (zprávy METAR a TAF).

Červené a žluté tečky na mapě představují dostupné meteorologické stanice.

Když kurzor umístíte na tečku, zobrazí se název stanice.

Pak kliknutím zobrazíte stav a předpověď počasí.

Chcete-li změnit mapu, kliknutím na zelené tlačítko se znaménkem +mapu přiblížíte, kliknutím na zelené tlačítko se znaménkem – mapu oddálíte a kliknutím na zelené šipky přejdete na sousední mapy.


METAR-TAF: